createdAt,value
2023-05-01T00:00:37.328Z,99422.7
2023-05-01T00:01:37.308Z,99417.23
2023-05-01T00:02:37.439Z,99418.44
2023-05-01T00:03:37.545Z,99411.74
2023-05-01T00:04:37.480Z,99416.42
2023-05-01T00:05:37.387Z,99419.12
2023-05-01T00:06:37.525Z,99417.7
2023-05-01T00:07:37.463Z,99413.2
2023-05-01T00:08:37.829Z,99414.16
2023-05-01T00:09:37.447Z,99411.39
2023-05-01T00:10:38.121Z,99409.01
2023-05-01T00:11:37.463Z,99413.5
2023-05-01T00:12:37.529Z,99414.87
2023-05-01T00:13:37.745Z,99415.69
2023-05-01T00:14:37.533Z,99415.56
2023-05-01T00:15:40.677Z,99416.05
2023-05-01T00:16:38.296Z,99417.39
2023-05-01T00:17:38.366Z,99419.49
2023-05-01T00:18:38.649Z,99418.71
2023-05-01T00:19:38.408Z,99423.02
2023-05-01T00:20:38.253Z,99425.55
2023-05-01T00:21:38.252Z,99425.46
2023-05-01T00:22:38.299Z,99429.26
2023-05-01T00:23:38.386Z,99430.97
2023-05-01T00:24:38.436Z,99428.3
2023-05-01T00:25:38.275Z,99425.81
2023-05-01T00:26:38.308Z,99429.1
2023-05-01T00:27:38.363Z,99430.03
2023-05-01T00:28:38.392Z,99422.28
2023-05-01T00:29:38.328Z,99430.01
2023-05-01T00:30:38.374Z,99427.09
2023-05-01T00:31:38.413Z,99424.88
2023-05-01T00:32:38.541Z,99430.09
2023-05-01T00:33:38.417Z,99427.59
2023-05-01T00:34:38.469Z,99428.77
2023-05-01T00:35:38.646Z,99427.23
2023-05-01T00:36:39.557Z,99429.17
2023-05-01T00:37:38.942Z,99423.59
2023-05-01T00:38:38.526Z,99432.7
2023-05-01T00:39:38.535Z,99429.06
2023-05-01T00:40:41.946Z,99431.22
2023-05-01T00:41:38.640Z,99432.2
2023-05-01T00:42:38.607Z,99428.69
2023-05-01T00:43:38.673Z,99430.53
2023-05-01T00:44:38.652Z,99434.98
2023-05-01T00:45:40.019Z,99431.25
2023-05-01T00:46:38.789Z,99430.55
2023-05-01T00:47:38.821Z,99426.31
2023-05-01T00:48:38.693Z,99427.44
2023-05-01T00:49:40.517Z,99427.68
2023-05-01T00:50:39.165Z,99432.47
2023-05-01T00:51:38.897Z,99432.15
2023-05-01T00:52:39.117Z,99434.16
2023-05-01T00:53:40.518Z,99429
2023-05-01T00:54:38.968Z,99429.87
2023-05-01T00:55:41.234Z,99426.24
2023-05-01T00:56:39.046Z,99429.92
2023-05-01T00:57:38.865Z,99429.84
2023-05-01T00:58:38.910Z,99433.08
2023-05-01T00:59:38.868Z,99427.09
2023-05-01T01:00:38.938Z,99427.84
2023-05-01T01:01:40.783Z,99425.49
2023-05-01T01:02:38.919Z,99424.79
2023-05-01T01:03:39.235Z,99425.17
2023-05-01T01:04:42.547Z,99425.15
2023-05-01T01:05:41.927Z,99426.15
2023-05-01T01:07:51.519Z,99430.27
2023-05-01T01:08:49.482Z,99427.7
2023-05-01T01:17:16.955Z,99422
2023-05-01T01:18:11.271Z,99425.11
2023-05-01T01:21:15.681Z,99427.75
2023-05-01T01:22:15.255Z,99422.8
2023-05-01T01:34:49.298Z,99424.02
2023-05-01T01:35:54.283Z,99429.94
2023-05-01T01:38:00.453Z,99426.99
2023-05-01T01:39:03.618Z,99424.33
2023-05-01T01:40:02.589Z,99429.34
2023-05-01T01:41:03.816Z,99428.42
2023-05-01T01:42:00.019Z,99427.16
2023-05-01T01:43:03.599Z,99427.8
2023-05-01T01:44:05.080Z,99429.69
2023-05-01T01:45:02.763Z,99427.95
2023-05-01T01:46:05.242Z,99430.22
2023-05-01T01:47:04.686Z,99425.42
2023-05-01T01:48:02.887Z,99430.04
2023-05-01T01:49:05.469Z,99429.36
2023-05-01T01:50:04.333Z,99431.86
2023-05-01T01:51:05.938Z,99428.45
2023-05-01T01:52:03.591Z,99434.58
2023-05-01T01:53:04.212Z,99432.14
2023-05-01T01:54:04.024Z,99429.65
2023-05-01T01:55:06.718Z,99439.47
2023-05-01T01:56:04.443Z,99436.48
2023-05-01T01:57:04.236Z,99435.62
2023-05-01T01:58:05.096Z,99434.6
2023-05-01T01:59:05.074Z,99430.72
2023-05-01T02:00:03.254Z,99435.83
2023-05-01T02:01:04.090Z,99433.16
2023-05-01T02:02:03.737Z,99434.95
2023-05-01T02:03:03.609Z,99438.64
2023-05-01T02:04:04.598Z,99434.78
2023-05-01T02:05:04.007Z,99435.98
2023-05-01T02:06:05.064Z,99435.72
2023-05-01T02:07:04.094Z,99432.31
2023-05-01T02:08:04.105Z,99433.02
2023-05-01T02:09:04.652Z,99435.14
2023-05-01T02:10:04.238Z,99429.89
2023-05-01T02:11:03.457Z,99430.58
2023-05-01T02:12:05.494Z,99431.69
2023-05-01T02:13:03.493Z,99430.96
2023-05-01T02:14:04.057Z,99431.51
2023-05-01T02:15:05.710Z,99430.73
2023-05-01T02:16:03.588Z,99431.3
2023-05-01T02:17:04.217Z,99433.02
2023-05-01T02:18:04.270Z,99430.9
2023-05-01T02:19:04.495Z,99434.97
2023-05-01T02:20:04.627Z,99435.42
2023-05-01T02:21:04.417Z,99439.32
2023-05-01T02:22:04.462Z,99440.98
2023-05-01T02:23:03.886Z,99438.57
2023-05-01T02:24:03.874Z,99442.26
2023-05-01T02:25:04.168Z,99441.9
2023-05-01T02:26:04.255Z,99444.48
2023-05-01T02:28:12.246Z,99443.11
2023-05-01T02:29:08.976Z,99446.22
2023-05-01T02:30:09.409Z,99449.08
2023-05-01T02:31:09.304Z,99448.19
2023-05-01T02:32:08.586Z,99444.47
2023-05-01T02:33:08.773Z,99442.65
2023-05-01T02:34:08.573Z,99446.61
2023-05-01T02:35:09.042Z,99447.61
2023-05-01T02:36:08.823Z,99450.64
2023-05-01T02:37:10.481Z,99446.17
2023-05-01T02:38:08.837Z,99448.97
2023-05-01T02:39:08.832Z,99447.83
2023-05-01T02:40:11.513Z,99448.55
2023-05-01T02:41:10.696Z,99446.3
2023-05-01T02:42:10.084Z,99442.14
2023-05-01T02:43:10.902Z,99451.16
2023-05-01T02:44:11.114Z,99446.27
2023-05-01T02:45:10.018Z,99444.86
2023-05-01T02:46:10.308Z,99449.38
2023-05-01T02:47:10.451Z,99448.19
2023-05-01T02:48:10.705Z,99447.84
2023-05-01T02:49:09.417Z,99448.83
2023-05-01T02:50:09.785Z,99454.27
2023-05-01T02:51:09.217Z,99452.95
2023-05-01T02:52:09.039Z,99450.25
2023-05-01T02:53:09.039Z,99447.64
2023-05-01T02:54:09.154Z,99447.52
2023-05-01T02:55:09.587Z,99442.84
2023-05-01T02:56:08.895Z,99442.92
2023-05-01T02:57:10.157Z,99444.71
2023-05-01T02:58:08.926Z,99447.23
2023-05-01T02:59:08.965Z,99443.14
2023-05-01T03:00:09.512Z,99441.83
2023-05-01T03:01:08.992Z,99446.02
2023-05-01T03:02:09.216Z,99443.64
2023-05-01T03:03:09.224Z,99444.41
2023-05-01T03:04:09.081Z,99437.53
2023-05-01T03:05:09.438Z,99437.47
2023-05-01T03:06:09.072Z,99439.39
2023-05-01T03:07:09.094Z,99437.17
2023-05-01T03:08:09.106Z,99441.07
2023-05-01T03:09:09.220Z,99441.97
2023-05-01T03:10:09.581Z,99438.67
2023-05-01T03:11:09.147Z,99439.26
2023-05-01T03:12:09.182Z,99437.95
2023-05-01T03:13:09.601Z,99441.12
2023-05-01T03:14:09.221Z,99443.06
2023-05-01T03:15:09.730Z,99437.42
2023-05-01T03:16:09.292Z,99437.77
2023-05-01T03:17:09.242Z,99435.14
2023-05-01T03:18:09.352Z,99438.74
2023-05-01T03:19:09.268Z,99439.77
2023-05-01T03:20:09.931Z,99438.98
2023-05-01T03:21:09.303Z,99441.29
2023-05-01T03:22:09.304Z,99442.59
2023-05-01T03:23:09.544Z,99441.12
2023-05-01T03:24:09.344Z,99443.41
2023-05-01T03:25:09.684Z,99443.72
2023-05-01T03:26:09.565Z,99444.22
2023-05-01T03:27:09.774Z,99441.98
2023-05-01T03:28:09.476Z,99443.81
2023-05-01T03:29:09.412Z,99446.06
2023-05-01T03:30:09.883Z,99439.55
2023-05-01T03:31:09.469Z,99442.59
2023-05-01T03:32:09.535Z,99442.23
2023-05-01T03:33:09.565Z,99446.81
2023-05-01T03:34:09.513Z,99443.45
2023-05-01T03:35:09.781Z,99441.59
2023-05-01T03:36:09.559Z,99438.14
2023-05-01T03:37:09.572Z,99437.89
2023-05-01T03:38:09.587Z,99437.03
2023-05-01T03:39:09.626Z,99440.59
2023-05-01T03:40:10.071Z,99440.99
2023-05-01T03:41:09.884Z,99442.96
2023-05-01T03:42:09.632Z,99439.95
2023-05-01T03:43:09.666Z,99443.02
2023-05-01T03:44:09.693Z,99443.59
2023-05-01T03:45:10.216Z,99448.66
2023-05-01T03:46:09.764Z,99444.53
2023-05-01T03:47:09.692Z,99445.61
2023-05-01T03:48:09.829Z,99448.18
2023-05-01T03:49:09.813Z,99449.84
2023-05-01T03:50:10.343Z,99450.23
2023-05-01T03:51:09.814Z,99447.19
2023-05-01T03:52:10.252Z,99446.41
2023-05-01T03:53:09.827Z,99450.36
2023-05-01T03:54:09.848Z,99447.59
2023-05-01T03:55:10.020Z,99448.68
2023-05-01T03:56:09.853Z,99450.16
2023-05-01T03:57:09.870Z,99448.86
2023-05-01T03:58:10.074Z,99445.31
2023-05-01T03:59:09.912Z,99445.29
2023-05-01T04:00:10.501Z,99449.52
2023-05-01T04:01:09.966Z,99445.73
2023-05-01T04:02:10.016Z,99450.08
2023-05-01T04:03:10.094Z,99452.08
2023-05-01T04:04:10.156Z,99450.38
2023-05-01T04:05:10.038Z,99452.54
2023-05-01T04:06:10.317Z,99448
2023-05-01T04:07:10.253Z,99448.72
2023-05-01T04:08:10.067Z,99446.16
2023-05-01T04:09:10.230Z,99447.36
2023-05-01T04:10:10.121Z,99455.19
2023-05-01T04:11:10.141Z,99443.76
2023-05-01T04:12:10.124Z,99446.3
2023-05-01T04:13:10.270Z,99446.34
2023-05-01T04:14:10.145Z,99451.87
2023-05-01T04:15:10.596Z,99445.03
2023-05-01T04:16:10.261Z,99450.84
2023-05-01T04:17:10.211Z,99450.23
2023-05-01T04:18:10.250Z,99449
2023-05-01T04:19:10.232Z,99449.97
2023-05-01T04:20:10.751Z,99447.09
2023-05-01T04:21:10.334Z,99453.47
2023-05-01T04:22:10.293Z,99451.5
2023-05-01T04:23:10.301Z,99448.05
2023-05-01T04:24:10.308Z,99453.62
2023-05-01T04:25:10.338Z,99451.38
2023-05-01T04:26:10.371Z,99449.62
2023-05-01T04:27:10.390Z,99447.8
2023-05-01T04:28:10.789Z,99448.95
2023-05-01T04:29:10.396Z,99442.67
2023-05-01T04:30:10.825Z,99446.11
2023-05-01T04:31:10.533Z,99448.93
2023-05-01T04:32:10.527Z,99453.1
2023-05-01T04:33:10.592Z,99446.88
2023-05-01T04:34:10.484Z,99448.76
2023-05-01T04:35:10.503Z,99444.52
2023-05-01T04:36:10.517Z,99446.23
2023-05-01T04:37:10.768Z,99442.44
2023-05-01T04:38:10.719Z,99451.18
2023-05-01T04:39:10.564Z,99449.66
2023-05-01T04:40:11.765Z,99445.67
2023-05-01T04:41:10.636Z,99450.94
2023-05-01T04:42:10.648Z,99450.58
2023-05-01T04:43:10.813Z,99447.95
2023-05-01T04:44:10.645Z,99444.91
2023-05-01T04:45:11.217Z,99444.71
2023-05-01T04:46:10.756Z,99447.42
2023-05-01T04:47:10.741Z,99447.91
2023-05-01T04:48:10.767Z,99441.99
2023-05-01T04:49:10.731Z,99451.44
2023-05-01T04:50:10.810Z,99451.27
2023-05-01T04:51:10.755Z,99444.78
2023-05-01T04:52:11.038Z,99450.41
2023-05-01T04:53:10.826Z,99449.31
2023-05-01T04:54:10.803Z,99448.97
2023-05-01T04:55:10.839Z,99452.23
2023-05-01T04:56:10.888Z,99453.42
2023-05-01T04:57:10.942Z,99453.41
2023-05-01T04:58:10.906Z,99454.88
2023-05-01T04:59:10.897Z,99453.55
2023-05-01T05:00:11.420Z,99455.94
2023-05-01T05:01:11.039Z,99452.16
2023-05-01T05:02:10.947Z,99454.23
2023-05-01T05:03:11.103Z,99453.95
2023-05-01T05:04:11.010Z,99455.91
2023-05-01T05:05:10.997Z,99454.47
2023-05-01T05:06:11.059Z,99456.19
2023-05-01T05:07:11.045Z,99458.38
2023-05-01T05:08:11.048Z,99458.12
2023-05-01T05:09:11.359Z,99451.73
2023-05-01T05:10:11.050Z,99451.66
2023-05-01T05:11:11.092Z,99459.56
2023-05-01T05:12:11.141Z,99456.88
2023-05-01T05:13:11.101Z,99454.36
2023-05-01T05:14:11.122Z,99456.48
2023-05-01T05:15:11.630Z,99465.17
2023-05-01T05:16:11.325Z,99464.98
2023-05-01T05:17:11.185Z,99466.36
2023-05-01T05:18:11.255Z,99463.17
2023-05-01T05:19:11.259Z,99465.76
2023-05-01T05:20:11.752Z,99469.61
2023-05-01T05:21:11.257Z,99472.48
2023-05-01T05:22:11.291Z,99474.62
2023-05-01T05:23:11.357Z,99471.58
2023-05-01T05:24:11.294Z,99473.47
2023-05-01T05:25:11.315Z,99476.24
2023-05-01T05:26:11.348Z,99477.82
2023-05-01T05:27:11.826Z,99481.34
2023-05-01T05:28:11.878Z,99484.61
2023-05-01T05:29:11.874Z,99482.41
2023-05-01T05:30:12.362Z,99482.65
2023-05-01T05:31:11.941Z,99489.03
2023-05-01T05:32:12.042Z,99490.2
2023-05-01T05:33:11.986Z,99487.91
2023-05-01T05:34:11.972Z,99494.02
2023-05-01T05:35:11.991Z,99491.52
2023-05-01T05:36:11.976Z,99493.07
2023-05-01T05:37:12.027Z,99496.75
2023-05-01T05:38:12.034Z,99501.73
2023-05-01T05:39:12.068Z,99506.38
2023-05-01T05:40:12.623Z,99507.53
2023-05-01T05:41:12.084Z,99504
2023-05-01T05:42:12.082Z,99509.58
2023-05-01T05:43:12.137Z,99507.02
2023-05-01T05:44:12.136Z,99515.86
2023-05-01T05:45:12.157Z,99513.53
2023-05-01T05:46:12.353Z,99515.82
2023-05-01T05:47:12.186Z,99518.27
2023-05-01T05:48:12.227Z,99518.22
2023-05-01T05:49:12.220Z,99526.48
2023-05-01T05:50:12.236Z,99522.87
2023-05-01T05:51:12.251Z,99526.77
2023-05-01T05:52:12.261Z,99528.14
2023-05-01T05:53:12.271Z,99524.1
2023-05-01T05:54:12.343Z,99528.02
2023-05-01T05:55:12.323Z,99525.84
2023-05-01T05:56:12.333Z,99527.38
2023-05-01T05:57:12.634Z,99524.97
2023-05-01T05:58:12.379Z,99534.6
2023-05-01T05:59:12.390Z,99533.98
2023-05-01T06:00:12.984Z,99540.2
2023-05-01T06:01:12.399Z,99538.16
2023-05-01T06:02:12.444Z,99543.91
2023-05-01T06:03:12.562Z,99540.24
2023-05-01T06:04:12.496Z,99540.47
2023-05-01T06:05:12.573Z,99547.89
2023-05-01T06:06:12.646Z,99546.93
2023-05-01T06:07:12.509Z,99544.14
2023-05-01T06:08:12.555Z,99548.62
2023-05-01T06:09:12.780Z,99551.28
2023-05-01T06:10:12.583Z,99558.87
2023-05-01T06:11:12.625Z,99550.27
2023-05-01T06:12:12.577Z,99552.88
2023-05-01T06:13:14.042Z,99553.41
2023-05-01T06:14:12.624Z,99548.77
2023-05-01T06:15:12.915Z,99554.39
2023-05-01T06:16:12.738Z,99560.48
2023-05-01T06:17:12.882Z,99560.16
2023-05-01T06:18:12.813Z,99561.73
2023-05-01T06:19:12.732Z,99560.06
2023-05-01T06:20:12.901Z,99562.37
2023-05-01T06:21:12.746Z,99565.98
2023-05-01T06:22:12.751Z,99565.92
2023-05-01T06:23:12.767Z,99558.15
2023-05-01T06:24:12.783Z,99561.19
2023-05-01T06:25:13.089Z,99566.42
2023-05-01T06:26:12.834Z,99565.45
2023-05-01T06:27:13.052Z,99577.56
2023-05-01T06:28:12.906Z,99568.88
2023-05-01T06:29:12.847Z,99573.71
2023-05-01T06:30:12.967Z,99574.3
2023-05-01T06:31:12.967Z,99576.55
2023-05-01T06:32:12.920Z,99577.77
2023-05-01T06:33:13.033Z,99571.12
2023-05-01T06:34:12.946Z,99580.75
2023-05-01T06:35:13.242Z,99571.14
2023-05-01T06:36:12.979Z,99573.76
2023-05-01T06:37:13.010Z,99575.06
2023-05-01T06:38:13.016Z,99576.31
2023-05-01T06:39:13.055Z,99577.9
2023-05-01T06:40:13.378Z,99577.98
2023-05-01T06:41:13.052Z,99577.36
2023-05-01T06:42:13.103Z,99575.27
2023-05-01T06:43:13.094Z,99583.03
2023-05-01T06:44:13.117Z,99574.78
2023-05-01T06:45:13.166Z,99578.6
2023-05-01T06:46:13.192Z,99576.05
2023-05-01T06:47:13.236Z,99571.48
2023-05-01T06:48:13.226Z,99573.48
2023-05-01T06:49:13.178Z,99570.4
2023-05-01T06:50:13.184Z,99572.34
2023-05-01T06:51:13.216Z,99571.58
2023-05-01T06:52:13.233Z,99567.53
2023-05-01T06:53:13.401Z,99568.8
2023-05-01T06:54:13.281Z,99570.3
2023-05-01T06:55:13.275Z,99568.05
2023-05-01T06:56:13.367Z,99569.72
2023-05-01T06:57:13.334Z,99576.53
2023-05-01T06:58:23.634Z,99572.03
2023-05-01T06:59:15.804Z,99574.02
2023-05-01T07:00:16.543Z,99576.23
2023-05-01T07:01:16.679Z,99574.47
2023-05-01T07:02:15.922Z,99581.16
2023-05-01T07:03:15.897Z,99573.42
2023-05-01T07:04:15.890Z,99574.22
2023-05-01T07:05:15.919Z,99574.5
2023-05-01T07:06:15.975Z,99570.95
2023-05-01T07:07:15.944Z,99567.73
2023-05-01T07:08:15.934Z,99567.59
2023-05-01T07:09:16.048Z,99566.31
2023-05-01T07:10:16.010Z,99571.09
2023-05-01T07:11:15.977Z,99569.03
2023-05-01T07:12:16.024Z,99566.53
2023-05-01T07:13:16.384Z,99567.67
2023-05-01T07:14:16.222Z,99569.09
2023-05-01T07:15:16.048Z,99559.53
2023-05-01T07:16:16.029Z,99552.06
2023-05-01T07:17:16.083Z,99557.42
2023-05-01T07:18:16.567Z,99555.39
2023-05-01T07:19:16.062Z,99558.78
2023-05-01T07:20:16.252Z,99559.94
2023-05-01T07:21:16.119Z,99567.89
2023-05-01T07:22:16.187Z,99563.06
2023-05-01T07:23:16.173Z,99564.38
2023-05-01T07:24:16.136Z,99564.86
2023-05-01T07:25:16.219Z,99563.46
2023-05-01T07:26:16.435Z,99562.86
2023-05-01T07:27:16.204Z,99565.88
2023-05-01T07:28:16.234Z,99554.16
2023-05-01T07:29:16.249Z,99555.59
2023-05-01T07:30:16.763Z,99558.45
2023-05-01T07:31:16.759Z,99568.28
2023-05-01T07:32:16.764Z,99553.02
2023-05-01T07:33:16.807Z,99554.3
2023-05-01T07:34:16.776Z,99550.8
2023-05-01T07:35:16.783Z,99555.72
2023-05-01T07:36:16.783Z,99559.73
2023-05-01T07:37:16.788Z,99551.47
2023-05-01T07:38:17.030Z,99557.4
2023-05-01T07:39:16.825Z,99554.34
2023-05-01T07:40:17.017Z,99555.55
2023-05-01T07:41:16.868Z,99550.7
2023-05-01T07:42:16.873Z,99553.34
2023-05-01T07:43:16.914Z,99551.46
2023-05-01T07:44:16.882Z,99550.58
2023-05-01T07:45:17.257Z,99551.88
2023-05-01T07:46:16.944Z,99536.03
2023-05-01T07:47:16.945Z,99544.69
2023-05-01T07:48:16.955Z,99548.3
2023-05-01T07:49:16.946Z,99558.68
2023-05-01T07:50:16.971Z,99556.41
2023-05-01T07:51:16.951Z,99555.36
2023-05-01T07:52:16.980Z,99546.39
2023-05-01T07:53:17.115Z,99551.91
2023-05-01T07:54:17.027Z,99547.56
2023-05-01T07:55:17.027Z,99546.07
2023-05-01T07:56:17.039Z,99557.41
2023-05-01T07:57:17.073Z,99550.36
2023-05-01T07:58:17.141Z,99549.29
2023-05-01T07:59:17.097Z,99552.73
2023-05-01T08:00:17.702Z,99547.95
2023-05-01T08:01:17.118Z,99542.95
2023-05-01T08:02:17.431Z,99550.89
2023-05-01T08:03:17.254Z,99537.4
2023-05-01T08:04:17.244Z,99547.64
2023-05-01T08:05:17.156Z,99549.14
2023-05-01T08:06:17.245Z,99542.52
2023-05-01T08:07:17.454Z,99545.84
2023-05-01T08:08:17.202Z,99528.69
2023-05-01T08:09:17.373Z,99541.8
2023-05-01T08:10:17.219Z,99547.22
2023-05-01T08:11:17.236Z,99560.7
2023-05-01T08:12:17.280Z,99551.36
2023-05-01T08:13:17.374Z,99550.63
2023-05-01T08:14:17.294Z,99552.88
2023-05-01T08:15:17.306Z,99548.38
2023-05-01T08:16:18.671Z,99548.17
2023-05-01T08:17:17.319Z,99549.59
2023-05-01T08:18:17.350Z,99553.2
2023-05-01T08:19:17.373Z,99550.47
2023-05-01T08:20:17.359Z,99559.64
2023-05-01T08:21:17.385Z,99548.77
2023-05-01T08:22:17.349Z,99547.62
2023-05-01T08:23:17.683Z,99549.4
2023-05-01T08:24:17.420Z,99554.92
2023-05-01T08:25:17.449Z,99548.53
2023-05-01T08:26:17.621Z,99549.03
2023-05-01T08:27:17.672Z,99542.09
2023-05-01T08:28:17.841Z,99544.5
2023-05-01T08:29:17.516Z,99544.76
2023-05-01T08:30:17.539Z,99542.53
2023-05-01T08:31:17.547Z,99543.91
2023-05-01T08:32:18.175Z,99546.11
2023-05-01T08:33:17.769Z,99533.5
2023-05-01T08:34:17.580Z,99548.61
2023-05-01T08:35:17.569Z,99549.56
2023-05-01T08:36:19.410Z,99546.31
2023-05-01T08:37:17.807Z,99543.8
2023-05-01T08:38:17.609Z,99546.13
2023-05-01T08:39:17.863Z,99537.13
2023-05-01T08:40:17.667Z,99539.73
2023-05-01T08:41:22.569Z,99533.36
2023-05-01T08:42:19.175Z,99536.77
2023-05-01T08:43:19.398Z,99543.95
2023-05-01T08:44:19.857Z,99541
2023-05-01T08:45:19.205Z,99549.2
2023-05-01T08:46:25.645Z,99545.25
2023-05-01T08:47:22.418Z,99542.05
2023-05-01T08:48:23.121Z,99534.73
2023-05-01T08:49:22.615Z,99543.14
2023-05-01T08:50:22.496Z,99541.24
2023-05-01T08:51:22.629Z,99541.42
2023-05-01T08:52:22.224Z,99554.86
2023-05-01T08:53:22.907Z,99543.91
2023-05-01T08:54:22.868Z,99557.27
2023-05-01T08:55:22.431Z,99550.63
2023-05-01T08:56:22.243Z,99562.03
2023-05-01T08:57:23.184Z,99561.27
2023-05-01T08:58:24.204Z,99559.73
2023-05-01T08:59:23.774Z,99553.39
2023-05-01T09:00:24.615Z,99555.95
2023-05-01T09:01:23.576Z,99553.09
2023-05-01T09:02:23.139Z,99540.23
2023-05-01T09:03:22.857Z,99558.27
2023-05-01T09:04:22.840Z,99557.87
2023-05-01T09:05:22.736Z,99555.28
2023-05-01T09:06:23.171Z,99554.36
2023-05-01T09:07:22.722Z,99558.14
2023-05-01T09:08:22.778Z,99558.47
2023-05-01T09:09:23.048Z,99558.36
2023-05-01T09:10:24.174Z,99554.45
2023-05-01T09:11:22.939Z,99556.17
2023-05-01T09:12:24.397Z,99560.91
2023-05-01T09:13:22.830Z,99557.31
2023-05-01T09:14:23.207Z,99560.89
2023-05-01T09:15:25.173Z,99561.34
2023-05-01T09:16:23.235Z,99566.52
2023-05-01T09:17:23.953Z,99556.51
2023-05-01T09:18:22.918Z,99563.25
2023-05-01T09:19:22.919Z,99563.48
2023-05-01T09:20:23.122Z,99562.62
2023-05-01T09:21:22.958Z,99563.89
2023-05-01T09:22:23.369Z,99568.62
2023-05-01T09:23:23.156Z,99566.53
2023-05-01T09:24:24.178Z,99571.87
2023-05-01T09:25:23.153Z,99572.33
2023-05-01T09:26:23.202Z,99573.45
2023-05-01T09:27:23.374Z,99575.95
2023-05-01T09:29:40.511Z,99579.98
2023-05-01T09:30:33.421Z,99578.14
2023-05-01T09:31:32.454Z,99575.97
2023-05-01T09:32:32.248Z,99582.99
2023-05-01T09:33:32.224Z,99581
2023-05-01T09:34:32.312Z,99581.27
2023-05-01T09:35:32.402Z,99585.67
2023-05-01T09:36:35.503Z,99583.48
2023-05-01T09:37:32.685Z,99580.36
2023-05-01T09:38:32.670Z,99575.96
2023-05-01T09:39:32.388Z,99592.38
2023-05-01T09:40:32.591Z,99570.97
2023-05-01T09:41:32.408Z,99575.85
2023-05-01T09:42:33.028Z,99575.66
2023-05-01T09:43:32.405Z,99574.83
2023-05-01T09:44:40.175Z,99576.31
2023-05-01T09:45:36.955Z,99587.32
2023-05-01T09:46:41.193Z,99588.11
2023-05-01T09:47:38.041Z,99595.98
2023-05-01T09:48:38.369Z,99591.56
2023-05-01T09:49:44.857Z,99597.63
2023-05-01T09:50:41.601Z,99600.82
2023-05-01T09:51:41.573Z,99597.64
2023-05-01T09:52:49.692Z,99593.19
2023-05-01T09:53:46.353Z,99588.41
2023-05-01T09:54:46.390Z,99591.27
2023-05-01T09:55:59.861Z,99595.98
2023-05-01T09:56:47.334Z,99594.81
2023-05-01T09:57:47.042Z,99589.35
2023-05-01T09:58:46.697Z,99588.98
2023-05-01T10:00:48.163Z,99588
2023-05-01T10:01:48.545Z,99588.02
2023-05-01T10:02:48.760Z,99585.42
2023-05-01T10:03:53.932Z,99581.2
2023-05-01T10:04:57.531Z,99574.72
2023-05-01T10:05:54.656Z,99573.8
2023-05-01T10:06:54.576Z,99567.2
2023-05-01T10:08:01.213Z,99577.06
2023-05-01T10:08:58.081Z,99573.98
2023-05-01T10:10:00.727Z,99568.46
2023-05-01T10:11:04.299Z,99571.88
2023-05-01T10:12:00.965Z,99566.18
2023-05-01T10:14:06.401Z,99559.25
2023-05-01T10:15:13.802Z,99559.22
2023-05-01T10:16:05.066Z,99570.56
2023-05-01T10:18:10.240Z,99558.66
2023-05-01T10:19:09.858Z,99566.28
2023-05-01T10:20:09.768Z,99555.92
2023-05-01T10:21:08.767Z,99557.23
2023-05-01T10:22:08.699Z,99563.8
2023-05-01T10:23:09.102Z,99557.73
2023-05-01T10:24:08.731Z,99548.27
2023-05-01T10:25:09.603Z,99549.62
2023-05-01T10:26:09.735Z,99542.39
2023-05-01T10:27:09.402Z,99548.36
2023-05-01T10:28:09.213Z,99544.81
2023-05-01T10:29:09.145Z,99546.56
2023-05-01T10:30:09.679Z,99544.61
2023-05-01T10:31:10.319Z,99541.01
2023-05-01T10:32:09.369Z,99546.41
2023-05-01T10:33:08.855Z,99545.89
2023-05-01T10:34:09.081Z,99533.88
2023-05-01T10:35:11.954Z,99535.59
2023-05-01T10:36:11.242Z,99535.35
2023-05-01T10:37:13.667Z,99523.91
2023-05-01T10:38:13.604Z,99531.93
2023-05-01T10:42:20.281Z,99534.91
2023-05-01T10:44:24.116Z,99541.77
2023-05-01T10:46:27.236Z,99547.57
2023-05-01T10:50:35.212Z,99545.12
2023-05-01T10:53:37.454Z,99543.03
2023-05-01T10:54:36.902Z,99548.11
2023-05-01T10:55:40.880Z,99540.8
2023-05-01T10:56:41.470Z,99544.77
2023-05-01T10:57:42.269Z,99540.48
2023-05-01T11:01:47.119Z,99533.28
2023-05-01T11:02:46.420Z,99534.51
2023-05-01T11:03:46.375Z,99531.68
2023-05-01T11:04:47.239Z,99530.53
2023-05-01T11:08:50.440Z,99531.65
2023-05-01T11:09:53.972Z,99531.44
2023-05-01T11:10:50.414Z,99528.93
2023-05-01T11:11:50.447Z,99536.91
2023-05-01T11:12:50.446Z,99543.3
2023-05-01T11:15:56.576Z,99541.03
2023-05-01T11:16:56.790Z,99551.04
2023-05-01T11:17:57.455Z,99551.84
2023-05-01T11:18:56.613Z,99551.52
2023-05-01T11:19:56.717Z,99544.55
2023-05-01T11:20:56.601Z,99550.86
2023-05-01T11:21:57.160Z,99549.88
2023-05-01T11:22:56.941Z,99551.34
2023-05-01T11:23:56.625Z,99545.94
2023-05-01T11:24:57.333Z,99537.08
2023-05-01T11:26:01.152Z,99532.11
2023-05-01T11:26:57.944Z,99538.05
2023-05-01T11:27:58.512Z,99528.83
2023-05-01T11:28:59.111Z,99536.59
2023-05-01T11:30:00.650Z,99526.64
2023-05-01T11:30:57.898Z,99544.61
2023-05-01T11:31:58.328Z,99529.43
2023-05-01T11:32:58.141Z,99522.49
2023-05-01T11:33:58.816Z,99532.48
2023-05-01T11:34:58.475Z,99538.48
2023-05-01T11:35:58.503Z,99543.88
2023-05-01T11:36:57.977Z,99541.2
2023-05-01T11:37:58.165Z,99539.2
2023-05-01T11:38:58.774Z,99547.12
2023-05-01T11:39:58.023Z,99544.28
2023-05-01T11:40:59.009Z,99549.7
2023-05-01T11:42:09.960Z,99548.75
2023-05-01T11:43:05.363Z,99553.38
2023-05-01T11:44:02.059Z,99544.61
2023-05-01T11:45:08.945Z,99551.61
2023-05-01T11:46:05.717Z,99556.98
2023-05-01T11:47:05.649Z,99550.92
2023-05-01T11:48:14.180Z,99552.06
2023-05-01T11:49:06.015Z,99552.47
2023-05-01T11:50:07.132Z,99546.82
2023-05-01T11:51:15.211Z,99544.02
2023-05-01T11:52:06.916Z,99546.49
2023-05-01T11:53:13.372Z,99541.23
2023-05-01T11:54:11.793Z,99535.36
2023-05-01T11:55:10.330Z,99531.8
2023-05-01T11:56:25.916Z,99532.56
2023-05-01T11:57:14.117Z,99531.12
2023-05-01T11:58:14.120Z,99533.62
2023-05-01T11:59:15.495Z,99527.05
2023-05-01T12:00:14.996Z,99523.66
2023-05-01T12:01:14.191Z,99530.27
2023-05-01T12:02:18.223Z,99518.03
2023-05-01T12:03:15.709Z,99518.23
2023-05-01T12:04:23.394Z,99523.27
2023-05-01T12:05:18.152Z,99532.05
2023-05-01T12:06:15.265Z,99528.6
2023-05-01T12:07:24.064Z,99535.12
2023-05-01T12:08:16.740Z,99533.14
2023-05-01T12:09:16.886Z,99530.22
2023-05-01T12:10:16.408Z,99531.66
2023-05-01T12:11:15.947Z,99523.23
2023-05-01T12:12:16.441Z,99530.25
2023-05-01T12:13:16.026Z,99531.64
2023-05-01T12:14:16.181Z,99520.35
2023-05-01T12:15:15.955Z,99525.45
2023-05-01T12:16:15.969Z,99521.83
2023-05-01T12:17:16.057Z,99524.98
2023-05-01T12:18:16.619Z,99522.09
2023-05-01T12:19:16.333Z,99519.02
2023-05-01T12:20:15.952Z,99527.09
2023-05-01T12:21:16.557Z,99525.89
2023-05-01T12:22:16.290Z,99526.47
2023-05-01T12:23:16.700Z,99522.18
2023-05-01T12:24:17.002Z,99520.54
2023-05-01T12:25:16.701Z,99517.6
2023-05-01T12:26:19.574Z,99519.92
2023-05-01T12:27:16.495Z,99524.64
2023-05-01T12:28:17.340Z,99522.05
2023-05-01T12:29:16.260Z,99520.05
2023-05-01T12:30:24.455Z,99522.22
2023-05-01T12:31:21.388Z,99520.66
2023-05-01T12:32:29.128Z,99525.07
2023-05-01T12:33:28.785Z,99515.81
2023-05-01T12:34:29.761Z,99517.59
2023-05-01T12:35:29.577Z,99516.92